Time;durP1;ratioP1;P1;durP2;ratioP2;P2;SDS_P1;SDS_P2;PMS_P1;PMS_P2;Temp;Humidity;BMP_temperature;BMP_pressure;BME280_temperature;BME280_humidity;BME280_pressure;Samples;Min_cycle;Max_cycle;Signal;HPM_P1;HPM_P2
2023/11/06 00:01:07;;;;;;;3.55;1.13;;;11.10;99.90;;;;;;4128748;28;20053;-73
2023/11/06 00:03:08;;;;;;;6.20;1.35;;;11.10;99.90;;;;;;4129675;28;20042;-72
2023/11/06 00:05:08;;;;;;;7.57;1.27;;;11.10;99.90;;;;;;4127157;28;20065;-73
2023/11/06 00:07:09;;;;;;;4.75;1.35;;;11.10;99.90;;;;;;4128229;28;20073;-73
2023/11/06 00:09:09;;;;;;;5.40;1.45;;;11.20;99.90;;;;;;4129334;28;20042;-72
2023/11/06 00:11:10;;;;;;;5.00;1.40;;;11.20;99.90;;;;;;4127305;28;20034;-73
2023/11/06 00:13:10;;;;;;;5.03;1.55;;;11.20;99.90;;;;;;4129611;28;20395;-74
2023/11/06 00:15:13;;;;;;;5.65;1.30;;;11.20;99.90;;;;;;4111449;28;20142;-72
2023/11/06 00:17:14;;;;;;;7.45;1.30;;;11.20;99.90;;;;;;4127974;28;20038;-71
2023/11/06 00:19:15;;;;;;;3.85;1.20;;;11.20;99.90;;;;;;4129283;28;20037;-72
2023/11/06 00:21:15;;;;;;;7.35;1.60;;;11.20;99.90;;;;;;4126439;28;20410;-72
2023/11/06 00:23:16;;;;;;;3.67;1.30;;;11.20;99.90;;;;;;4128972;28;20038;-72
2023/11/06 00:25:16;;;;;;;8.63;1.55;;;11.20;99.90;;;;;;4126819;28;20509;-72
2023/11/06 00:27:17;;;;;;;6.20;1.50;;;11.20;99.90;;;;;;4128304;28;20034;-72
2023/11/06 00:29:18;;;;;;;3.85;1.50;;;11.20;99.90;;;;;;4129451;28;20403;-72
2023/11/06 00:31:18;;;;;;;6.47;1.55;;;11.20;99.90;;;;;;4134127;28;20033;-72
2023/11/06 00:33:19;;;;;;;3.97;1.20;;;11.20;99.90;;;;;;4130793;28;20041;-72
2023/11/06 00:35:20;;;;;;;8.23;1.40;;;11.30;99.90;;;;;;4124686;28;20074;-72
2023/11/06 00:37:20;;;;;;;6.55;1.48;;;11.30;99.90;;;;;;4129420;28;20023;-72
2023/11/06 00:39:21;;;;;;;5.30;1.55;;;11.30;99.90;;;;;;4131656;28;20407;-73
2023/11/06 00:41:21;;;;;;;6.68;1.73;;;11.30;99.90;;;;;;4132174;28;20041;-72
2023/11/06 00:43:22;;;;;;;3.85;1.40;;;11.20;99.90;;;;;;4141243;28;20096;-72
2023/11/06 00:45:23;;;;;;;3.28;1.48;;;11.30;99.90;;;;;;4125453;28;20043;-72
2023/11/06 00:47:23;;;;;;;3.45;1.05;;;11.20;99.90;;;;;;4109780;28;20065;-73
2023/11/06 00:49:24;;;;;;;3.55;0.82;;;11.30;99.90;;;;;;4128411;28;20041;-72
2023/11/06 00:51:24;;;;;;;6.93;1.70;;;11.20;99.90;;;;;;4131755;28;20041;-72
2023/11/06 00:53:25;;;;;;;5.55;1.38;;;11.30;99.90;;;;;;4143768;28;20034;-73
2023/11/06 00:55:26;;;;;;;3.80;1.05;;;11.20;99.90;;;;;;4136189;28;20450;-72
2023/11/06 00:57:27;;;;;;;9.02;1.70;;;11.20;99.90;;;;;;4110870;28;20097;-70
2023/11/06 00:59:27;;;;;;;4.88;1.30;;;11.20;99.90;;;;;;4127826;28;20062;-70
2023/11/06 01:01:28;;;;;;;4.20;1.20;;;11.20;99.90;;;;;;4129437;28;20050;-70
2023/11/06 01:03:29;;;;;;;5.07;1.33;;;11.20;99.90;;;;;;4128014;28;20037;-70
2023/11/06 01:05:31;;;;;;;6.25;1.70;;;11.20;99.90;;;;;;4125826;28;20411;-70
2023/11/06 01:07:32;;;;;;;13.52;1.70;;;11.20;99.90;;;;;;4127848;28;20089;-70
2023/11/06 01:09:32;;;;;;;5.45;1.42;;;11.10;99.90;;;;;;4127956;28;20039;-70
2023/11/06 01:11:35;;;;;;;7.20;1.45;;;11.10;99.90;;;;;;4129544;28;20117;-70
2023/11/06 01:13:35;;;;;;;4.43;1.25;;;11.10;99.90;;;;;;4127444;28;20034;-70
2023/11/06 01:15:36;;;;;;;4.63;1.23;;;11.10;99.90;;;;;;4127658;28;20397;-70
2023/11/06 01:17:37;;;;;;;6.13;1.50;;;11.10;99.90;;;;;;4127772;28;20057;-70
2023/11/06 01:19:38;;;;;;;7.75;1.60;;;11.10;99.90;;;;;;4110425;28;20595;-70
2023/11/06 01:21:38;;;;;;;5.90;1.20;;;11.20;99.90;;;;;;4125008;28;20045;-70
2023/11/06 01:23:39;;;;;;;4.25;1.33;;;11.10;99.90;;;;;;4127722;28;20038;-70
2023/11/06 01:25:44;;;;;;;3.50;0.90;;;11.10;99.90;;;;;;4124593;28;20489;-70
2023/11/06 01:27:44;;;;;;;4.68;1.58;;;11.10;99.90;;;;;;4127057;28;20030;-70
2023/11/06 01:29:45;;;;;;;4.50;1.30;;;11.10;99.90;;;;;;4124409;28;20061;-71
2023/11/06 01:31:46;;;;;;;5.82;1.48;;;11.10;99.90;;;;;;4126224;28;20455;-71
2023/11/06 01:33:46;;;;;;;3.95;1.10;;;11.10;99.90;;;;;;4126657;28;20447;-71
2023/11/06 01:35:47;;;;;;;4.93;1.45;;;11.10;99.90;;;;;;4125478;28;20046;-71
2023/11/06 01:37:48;;;;;;;4.57;1.10;;;11.10;99.90;;;;;;4127114;28;20397;-71
2023/11/06 01:39:49;;;;;;;2.40;1.10;;;11.10;99.90;;;;;;4127431;28;20031;-71
2023/11/06 01:41:50;;;;;;;5.20;1.52;;;11.10;99.90;;;;;;4126425;28;20402;-71
2023/11/06 01:43:51;;;;;;;6.43;1.55;;;11.10;99.90;;;;;;4126759;28;20053;-70
2023/11/06 01:45:53;;;;;;;7.70;1.88;;;11.10;99.90;;;;;;4125913;28;20511;-70
2023/11/06 01:47:54;;;;;;;6.43;1.48;;;11.10;99.90;;;;;;4126799;28;20038;-70
2023/11/06 01:49:55;;;;;;;5.53;1.40;;;11.10;99.90;;;;;;4127834;28;20038;-71
2023/11/06 01:51:56;;;;;;;4.00;1.00;;;11.00;99.90;;;;;;4108811;28;20069;-70
2023/11/06 01:53:56;;;;;;;5.07;1.42;;;11.00;99.90;;;;;;4109802;28;20030;-70
2023/11/06 01:55:58;;;;;;;3.55;1.38;;;11.00;99.90;;;;;;4128609;28;20057;-70
2023/11/06 01:57:58;;;;;;;4.97;1.33;;;11.00;99.90;;;;;;4130233;28;20403;-70
2023/11/06 01:59:59;;;;;;;8.43;1.45;;;11.00;99.90;;;;;;4110074;28;20078;-70
2023/11/06 02:02:05;;;;;;;6.30;1.20;;;11.00;99.90;;;;;;4112140;28;20039;-70
2023/11/06 02:04:11;;;;;;;5.20;1.40;;;11.00;99.90;;;;;;4126568;28;20045;-70
2023/11/06 02:06:12;;;;;;;8.98;1.42;;;11.00;99.90;;;;;;4130223;28;20145;-73
2023/11/06 02:08:15;;;;;;;4.90;1.50;;;11.00;99.90;;;;;;4128898;28;20038;-79
2023/11/06 02:10:17;;;;;;;3.65;1.10;;;11.00;99.90;;;;;;4126002;28;20030;-79
2023/11/06 02:12:18;;;;;;;2.28;1.10;;;11.00;99.90;;;;;;4109322;28;20066;-79
2023/11/06 02:14:18;;;;;;;3.13;1.20;;;11.00;99.90;;;;;;4125917;28;20140;-79
2023/11/06 02:16:19;;;;;;;6.70;1.08;;;11.00;99.90;;;;;;4124230;28;20030;-78
2023/11/06 02:18:23;;;;;;;7.75;2.03;;;11.00;99.90;;;;;;4107110;28;20035;-79
2023/11/06 02:20:23;;;;;;;4.22;1.25;;;11.00;99.90;;;;;;4125002;28;20038;-79
2023/11/06 02:22:25;;;;;;;3.92;1.30;;;11.00;99.90;;;;;;4124153;28;20049;-79
2023/11/06 02:24:26;;;;;;;5.18;1.25;;;10.90;99.90;;;;;;4116441;28;20396;-78
2023/11/06 02:26:26;;;;;;;6.20;1.30;;;11.00;99.90;;;;;;4124126;28;20039;-79
2023/11/06 02:28:27;;;;;;;5.88;1.50;;;11.00;99.90;;;;;;4125770;28;20474;-79
2023/11/06 02:30:27;;;;;;;3.20;0.98;;;11.00;99.90;;;;;;4154471;28;20050;-79
2023/11/06 02:32:28;;;;;;;7.43;1.70;;;11.00;99.90;;;;;;4146804;28;20088;-79
2023/11/06 02:34:29;;;;;;;4.78;1.13;;;10.90;99.90;;;;;;4142448;28;20126;-80
2023/11/06 02:36:29;;;;;;;4.22;1.10;;;11.00;99.90;;;;;;4142391;28;20432;-79
2023/11/06 02:38:30;;;;;;;5.20;1.35;;;10.90;99.90;;;;;;4142742;28;20084;-79
2023/11/06 02:40:31;;;;;;;7.72;1.50;;;11.00;99.90;;;;;;4142693;28;20045;-79
2023/11/06 02:42:32;;;;;;;2.35;1.13;;;10.90;99.90;;;;;;4150695;28;20157;-80
2023/11/06 02:44:33;;;;;;;5.57;1.38;;;10.90;99.90;;;;;;4145502;28;20042;-80
2023/11/06 02:46:33;;;;;;;4.22;1.15;;;11.00;99.90;;;;;;4141005;28;20045;-80
2023/11/06 02:48:34;;;;;;;6.10;1.40;;;10.90;99.90;;;;;;4152415;28;20090;-80
2023/11/06 02:50:34;;;;;;;3.10;1.10;;;10.90;99.90;;;;;;4158395;28;20029;-79
2023/11/06 02:52:35;;;;;;;4.43;1.10;;;10.90;99.90;;;;;;4145352;28;20034;-80
2023/11/06 02:54:36;;;;;;;8.63;1.55;;;10.90;99.90;;;;;;4143940;28;20136;-80
2023/11/06 02:56:36;;;;;;;5.70;1.27;;;11.00;99.90;;;;;;4137344;28;20133;-80
2023/11/06 02:58:37;;;;;;;5.50;1.60;;;11.00;99.90;;;;;;4153033;28;20091;-79
2023/11/06 03:00:37;;;;;;;5.85;1.23;;;10.90;99.90;;;;;;4155920;28;20402;-80
2023/11/06 03:02:38;;;;;;;4.60;1.45;;;10.90;99.90;;;;;;4153001;28;20030;-79
2023/11/06 03:04:39;;;;;;;7.72;1.58;;;10.90;99.90;;;;;;4144728;28;20038;-79
2023/11/06 03:06:40;;;;;;;3.28;0.90;;;10.90;99.90;;;;;;4141864;28;20474;-80
2023/11/06 03:08:41;;;;;;;7.22;1.70;;;10.90;99.90;;;;;;4141325;28;20076;-79
2023/11/06 03:10:41;;;;;;;6.63;1.30;;;10.90;99.90;;;;;;4140668;28;20064;-79
2023/11/06 03:12:42;;;;;;;4.07;1.08;;;10.90;99.90;;;;;;4145976;28;20043;-74
2023/11/06 03:14:42;;;;;;;5.05;1.10;;;10.90;99.90;;;;;;4143081;28;20039;-78
2023/11/06 03:16:44;;;;;;;5.15;1.35;;;10.90;99.90;;;;;;4141499;28;20567;-72
2023/11/06 03:18:44;;;;;;;3.20;1.08;;;10.90;99.90;;;;;;4142319;28;20041;-72
2023/11/06 03:20:46;;;;;;;4.60;1.23;;;10.80;99.90;;;;;;4141219;28;20037;-72
2023/11/06 03:22:46;;;;;;;2.95;1.20;;;10.90;99.90;;;;;;4142348;28;20574;-71
2023/11/06 03:24:47;;;;;;;6.10;1.52;;;10.90;99.90;;;;;;4156981;28;20126;-72
2023/11/06 03:26:47;;;;;;;4.28;1.30;;;10.90;99.90;;;;;;4141978;28;20669;-72
2023/11/06 03:28:48;;;;;;;2.92;1.05;;;10.90;99.90;;;;;;4154346;28;20041;-72
2023/11/06 03:30:49;;;;;;;3.00;1.10;;;10.80;99.90;;;;;;4132469;28;20055;-72
2023/11/06 03:32:51;;;;;;;4.40;1.55;;;10.90;99.90;;;;;;4109198;28;20061;-72
2023/11/06 03:34:52;;;;;;;3.90;1.05;;;10.90;99.90;;;;;;4125182;28;20748;-72
2023/11/06 03:36:53;;;;;;;2.75;1.05;;;10.80;99.90;;;;;;4125195;28;20054;-72
2023/11/06 03:38:53;;;;;;;5.60;1.23;;;10.80;99.90;;;;;;4126511;28;20105;-72
2023/11/06 03:40:55;;;;;;;6.38;1.30;;;10.90;99.90;;;;;;4125765;28;20503;-72
2023/11/06 03:42:55;;;;;;;4.25;1.15;;;10.90;99.90;;;;;;4109211;28;20035;-73
2023/11/06 03:44:56;;;;;;;3.95;1.25;;;10.90;99.90;;;;;;4126660;28;20038;-72
2023/11/06 03:46:57;;;;;;;5.13;1.27;;;10.80;99.90;;;;;;4106617;28;20487;-72
2023/11/06 03:48:59;;;;;;;3.80;1.02;;;10.80;99.90;;;;;;4108661;28;20035;-73
2023/11/06 03:50:59;;;;;;;4.25;1.40;;;10.80;99.90;;;;;;4107953;28;20039;-73
2023/11/06 03:53:00;;;;;;;5.05;1.02;;;10.90;99.90;;;;;;4124878;28;20489;-72
2023/11/06 03:55:00;;;;;;;4.68;0.90;;;10.80;99.90;;;;;;4125136;28;20054;-73
2023/11/06 03:57:01;;;;;;;4.45;1.50;;;10.90;99.90;;;;;;4126952;28;20046;-73
2023/11/06 03:59:02;;;;;;;4.65;1.25;;;10.80;99.90;;;;;;4129343;28;20314;-73
2023/11/06 04:01:05;;;;;;;6.63;1.10;;;10.80;99.90;;;;;;4127696;28;21319;-73
2023/11/06 04:03:06;;;;;;;8.63;1.83;;;10.80;99.90;;;;;;4129528;28;20546;-73
2023/11/06 04:05:07;;;;;;;6.70;1.65;;;10.90;99.90;;;;;;4110298;28;20058;-73
2023/11/06 04:07:07;;;;;;;2.35;1.23;;;10.80;99.90;;;;;;4127998;28;20050;-73
2023/11/06 04:09:08;;;;;;;5.80;1.60;;;10.80;99.90;;;;;;4128843;28;20058;-73
2023/11/06 04:11:09;;;;;;;11.90;1.77;;;10.80;99.90;;;;;;4127641;28;20027;-73
2023/11/06 04:13:10;;;;;;;2.97;1.10;;;10.80;99.90;;;;;;4134909;28;20030;-73
2023/11/06 04:15:10;;;;;;;4.80;1.10;;;10.80;99.90;;;;;;4130777;28;20125;-73
2023/11/06 04:17:11;;;;;;;5.85;1.58;;;10.80;99.90;;;;;;4128391;28;20034;-72
2023/11/06 04:19:11;;;;;;;4.88;1.20;;;10.80;99.90;;;;;;4129050;28;20037;-72
2023/11/06 04:21:12;;;;;;;5.22;1.52;;;10.80;99.90;;;;;;4110848;28;20122;-73
2023/11/06 04:23:13;;;;;;;7.47;1.52;;;10.80;99.90;;;;;;4128695;28;20538;-73
2023/11/06 04:25:13;;;;;;;4.78;1.30;;;10.80;99.90;;;;;;4125169;28;20085;-71
2023/11/06 04:27:14;;;;;;;5.13;1.63;;;10.70;99.90;;;;;;4132568;28;20041;-69
2023/11/06 04:29:14;;;;;;;4.63;1.15;;;10.80;99.90;;;;;;4133749;28;20030;-69
2023/11/06 04:31:15;;;;;;;5.75;1.70;;;10.70;99.90;;;;;;4129923;28;20505;-70
2023/11/06 04:33:16;;;;;;;6.32;1.70;;;10.70;99.90;;;;;;4129038;28;20037;-69
2023/11/06 04:35:16;;;;;;;2.85;1.10;;;10.70;99.90;;;;;;4108642;28;20131;-69
2023/11/06 04:37:17;;;;;;;4.65;1.40;;;10.70;99.90;;;;;;4128341;28;20117;-69
2023/11/06 04:39:17;;;;;;;3.22;1.17;;;10.70;99.90;;;;;;4128434;28;20035;-70
2023/11/06 04:41:18;;;;;;;6.03;2.20;;;10.70;99.90;;;;;;4127725;28;20475;-70
2023/11/06 04:43:19;;;;;;;6.53;1.35;;;10.70;99.90;;;;;;4128197;28;20122;-69
2023/11/06 04:45:20;;;;;;;5.57;1.30;;;10.60;99.90;;;;;;4133266;28;20093;-69
2023/11/06 04:47:20;;;;;;;6.13;1.33;;;10.70;99.90;;;;;;4128405;28;20030;-69
2023/11/06 04:49:21;;;;;;;3.83;1.35;;;10.70;99.90;;;;;;4128487;28;20049;-69
2023/11/06 04:51:21;;;;;;;8.13;1.80;;;10.60;99.90;;;;;;4127178;28;20510;-70
2023/11/06 04:53:22;;;;;;;4.35;1.52;;;10.60;99.90;;;;;;4128049;28;20038;-69
2023/11/06 04:55:23;;;;;;;4.30;1.23;;;10.60;99.90;;;;;;4126713;28;20054;-69
2023/11/06 04:57:23;;;;;;;4.03;1.48;;;10.60;99.90;;;;;;4126983;28;20881;-69
2023/11/06 04:59:24;;;;;;;6.22;1.42;;;10.60;99.90;;;;;;4130111;28;20046;-69
2023/11/06 05:01:24;;;;;;;5.30;1.33;;;10.60;99.90;;;;;;4126734;28;20150;-69
2023/11/06 05:03:25;;;;;;;2.55;0.98;;;10.60;99.90;;;;;;4127817;28;20037;-69
2023/11/06 05:05:26;;;;;;;4.50;1.33;;;10.50;99.90;;;;;;4126093;28;20038;-69
2023/11/06 05:07:27;;;;;;;4.30;1.25;;;10.50;99.90;;;;;;4109801;28;20140;-69
2023/11/06 05:09:28;;;;;;;3.25;1.00;;;10.60;99.90;;;;;;4128516;28;20030;-69
2023/11/06 05:11:29;;;;;;;3.33;1.10;;;10.60;99.90;;;;;;4126825;28;20026;-69
2023/11/06 05:13:29;;;;;;;5.15;1.52;;;10.60;99.90;;;;;;4127586;28;20540;-69
2023/11/06 05:15:30;;;;;;;6.45;1.60;;;10.60;99.90;;;;;;4125909;28;20116;-69
2023/11/06 05:17:31;;;;;;;9.90;1.65;;;10.60;99.90;;;;;;4126559;28;20536;-69
2023/11/06 05:19:37;;;;;;;5.18;1.50;;;10.60;99.90;;;;;;4128079;28;20030;-69
2023/11/06 05:21:38;;;;;;;9.50;1.75;;;10.60;99.90;;;;;;4106548;28;20027;-69
2023/11/06 05:23:38;;;;;;;6.40;1.38;;;10.60;99.90;;;;;;4109670;28;20503;-69
2023/11/06 05:25:39;;;;;;;8.93;1.67;;;10.60;99.90;;;;;;4126529;28;20045;-69
2023/11/06 05:27:39;;;;;;;7.97;1.50;;;10.50;99.90;;;;;;4127472;28;20031;-69
2023/11/06 05:29:40;;;;;;;7.95;1.60;;;10.60;99.90;;;;;;4135897;28;20113;-69
2023/11/06 05:31:41;;;;;;;9.32;1.45;;;10.60;99.90;;;;;;4128761;28;20089;-69
2023/11/06 05:33:42;;;;;;;4.80;1.20;;;10.50;99.90;;;;;;4127299;28;20093;-69
2023/11/06 05:35:43;;;;;;;8.65;1.80;;;10.60;99.90;;;;;;4109048;28;20034;-69
2023/11/06 05:37:43;;;;;;;7.40;1.80;;;10.60;99.90;;;;;;4127780;28;20041;-67
2023/11/06 05:39:45;;;;;;;8.88;2.00;;;10.60;99.90;;;;;;4127096;28;20058;-68
2023/11/06 05:41:49;;;;;;;6.32;1.65;;;10.60;99.90;;;;;;4126707;28;20022;-67
2023/11/06 05:43:50;;;;;;;8.63;1.80;;;10.60;99.90;;;;;;4126139;28;20105;-67
2023/11/06 05:45:50;;;;;;;7.22;1.77;;;10.60;99.90;;;;;;4126540;28;20046;-67
2023/11/06 05:47:51;;;;;;;6.95;1.60;;;10.60;99.90;;;;;;4127228;28;20472;-67
2023/11/06 05:49:51;;;;;;;9.02;2.47;;;10.60;99.90;;;;;;4127079;28;20077;-67
2023/11/06 05:51:52;;;;;;;9.02;1.88;;;10.60;99.90;;;;;;4125861;28;20610;-67
2023/11/06 05:53:53;;;;;;;6.72;1.60;;;10.60;99.90;;;;;;4127256;28;20030;-67
2023/11/06 05:55:54;;;;;;;13.05;2.28;;;10.60;99.90;;;;;;4142252;28;20049;-67
2023/11/06 05:57:55;;;;;;;8.18;1.90;;;10.60;99.90;;;;;;4128953;28;20042;-67
2023/11/06 05:59:55;;;;;;;9.35;2.00;;;10.60;99.90;;;;;;4137643;28;20038;-67
2023/11/06 06:01:56;;;;;;;14.85;2.47;;;10.60;99.90;;;;;;4134652;28;20394;-67
2023/11/06 06:03:57;;;;;;;6.35;1.92;;;10.60;99.90;;;;;;4125073;28;20066;-67
2023/11/06 06:05:58;;;;;;;8.85;2.40;;;10.60;99.90;;;;;;4124824;28;20042;-67
2023/11/06 06:07:58;;;;;;;9.80;2.05;;;10.60;99.90;;;;;;4124757;28;20093;-67
2023/11/06 06:09:59;;;;;;;9.50;2.10;;;10.60;99.90;;;;;;4125759;28;20034;-66
2023/11/06 06:12:00;;;;;;;9.23;2.05;;;10.60;99.90;;;;;;4122727;28;20060;-67
2023/11/06 06:14:01;;;;;;;14.48;2.58;;;10.60;99.90;;;;;;4125658;28;20042;-67
2023/11/06 06:16:03;;;;;;;15.35;3.17;;;10.60;99.90;;;;;;4121916;28;20403;-66
2023/11/06 06:18:03;;;;;;;7.57;2.28;;;10.60;99.90;;;;;;4122355;28;20054;-67
2023/11/06 06:20:06;;;;;;;7.22;2.10;;;10.60;99.90;;;;;;4125082;28;20038;-67
2023/11/06 06:22:07;;;;;;;6.80;1.80;;;10.60;99.90;;;;;;4126490;28;20039;-67
2023/11/06 06:24:10;;;;;;;13.27;2.42;;;10.60;99.90;;;;;;4126215;28;20039;-67
2023/11/06 06:26:11;;;;;;;11.80;2.35;;;10.60;99.90;;;;;;4125284;28;20062;-67
2023/11/06 06:28:11;;;;;;;17.42;2.63;;;10.70;99.90;;;;;;4126846;28;20045;-67
2023/11/06 06:30:15;;;;;;;7.47;2.30;;;10.60;99.90;;;;;;4137345;28;20069;-67
2023/11/06 06:32:16;;;;;;;10.23;1.92;;;10.60;99.90;;;;;;4125910;28;20061;-67
2023/11/06 06:34:17;;;;;;;8.85;1.92;;;10.60;99.90;;;;;;4125636;28;20037;-66
2023/11/06 06:36:18;;;;;;;17.33;3.20;;;10.60;99.90;;;;;;4108283;28;20050;-66
2023/11/06 06:38:20;;;;;;;16.17;2.75;;;10.60;99.90;;;;;;4107721;28;20373;-67
2023/11/06 06:40:21;;;;;;;10.88;2.00;;;10.60;99.90;;;;;;4092258;28;20503;-66
2023/11/06 06:42:21;;;;;;;9.50;1.95;;;10.60;99.90;;;;;;4121212;28;20034;-66
2023/11/06 06:44:22;;;;;;;11.68;2.63;;;10.60;99.90;;;;;;4124064;28;20467;-67
2023/11/06 06:46:23;;;;;;;13.35;2.13;;;10.70;99.90;;;;;;4120126;28;20068;-69
2023/11/06 06:48:23;;;;;;;11.38;2.45;;;10.60;99.90;;;;;;4122265;28;20066;-66
2023/11/06 06:50:24;;;;;;;13.30;2.65;;;10.70;99.90;;;;;;4123057;28;20034;-66
2023/11/06 06:52:24;;;;;;;14.60;2.75;;;10.60;99.90;;;;;;4123480;28;20034;-66
2023/11/06 06:54:25;;;;;;;11.45;2.13;;;10.60;99.90;;;;;;4122857;28;20460;-66
2023/11/06 06:56:25;;;;;;;11.98;2.67;;;10.70;99.90;;;;;;4098931;28;20050;-66
2023/11/06 06:58:26;;;;;;;9.02;1.95;;;10.60;99.90;;;;;;4123028;28;20042;-66
2023/11/06 07:00:27;;;;;;;11.68;2.17;;;10.60;99.90;;;;;;4116939;28;20045;-67
2023/11/06 07:02:28;;;;;;;8.43;2.10;;;10.60;99.90;;;;;;4116516;28;20078;-66
2023/11/06 07:04:28;;;;;;;11.93;3.03;;;10.70;99.90;;;;;;4122588;28;20105;-66
2023/11/06 07:06:29;;;;;;;9.73;2.30;;;10.70;99.90;;;;;;4120990;28;20515;-66
2023/11/06 07:08:30;;;;;;;13.18;2.38;;;10.70;99.90;;;;;;4125370;28;20038;-67
2023/11/06 07:10:30;;;;;;;8.82;2.17;;;10.70;99.90;;;;;;4110086;28;20133;-66
2023/11/06 07:12:31;;;;;;;6.65;1.90;;;10.70;99.90;;;;;;4126708;28;20551;-69
2023/11/06 07:14:32;;;;;;;12.73;2.50;;;10.70;99.90;;;;;;4126635;28;20494;-68
2023/11/06 07:16:33;;;;;;;10.07;2.55;;;10.70;99.90;;;;;;4109629;28;20042;-68
2023/11/06 07:18:33;;;;;;;9.52;1.75;;;10.70;99.90;;;;;;4127419;28;20117;-69
2023/11/06 07:20:34;;;;;;;8.13;2.17;;;10.70;99.90;;;;;;4107266;28;20521;-68
2023/11/06 07:22:35;;;;;;;10.27;1.88;;;10.70;99.90;;;;;;4125689;28;20043;-68
2023/11/06 07:24:35;;;;;;;10.02;2.30;;;10.70;99.90;;;;;;4122935;28;20104;-69
2023/11/06 07:26:36;;;;;;;9.48;1.98;;;10.70;99.90;;;;;;4124481;28;20035;-69
2023/11/06 07:28:37;;;;;;;8.25;1.88;;;10.70;99.90;;;;;;4117645;28;20038;-68
2023/11/06 07:30:38;;;;;;;9.52;2.17;;;10.80;99.90;;;;;;4129556;28;20069;-69
2023/11/06 07:32:38;;;;;;;7.90;2.00;;;10.80;99.90;;;;;;4132110;28;20035;-69
2023/11/06 07:34:39;;;;;;;8.23;2.20;;;10.70;99.90;;;;;;4127793;28;20038;-68
2023/11/06 07:36:40;;;;;;;14.38;2.45;;;10.70;99.90;;;;;;4125584;28;20078;-69
2023/11/06 07:38:40;;;;;;;10.32;2.20;;;10.70;99.90;;;;;;4129058;28;20102;-69
2023/11/06 07:40:41;;;;;;;11.07;2.47;;;10.80;99.90;;;;;;4121732;28;20084;-69
2023/11/06 07:42:42;;;;;;;13.70;2.38;;;10.80;99.90;;;;;;4129820;28;20034;-68
2023/11/06 07:44:42;;;;;;;10.85;2.45;;;10.80;99.90;;;;;;4129350;28;20043;-69
2023/11/06 07:46:43;;;;;;;12.43;2.50;;;10.80;99.90;;;;;;4143758;28;20085;-68
2023/11/06 07:48:43;;;;;;;6.80;1.70;;;10.80;99.90;;;;;;4138361;28;20531;-68
2023/11/06 07:50:44;;;;;;;13.02;2.97;;;10.80;99.90;;;;;;4127664;28;20092;-69
2023/11/06 07:52:44;;;;;;;7.50;1.90;;;10.90;99.90;;;;;;4130191;28;20041;-69
2023/11/06 07:54:46;;;;;;;11.85;2.25;;;10.80;99.90;;;;;;4128496;28;20407;-69
2023/11/06 07:56:48;;;;;;;20.42;2.85;;;10.80;99.90;;;;;;4129355;28;20085;-69
2023/11/06 07:58:48;;;;;;;14.73;2.85;;;10.90;99.90;;;;;;4133670;28;20510;-69
2023/11/06 08:00:49;;;;;;;9.05;2.13;;;10.90;99.90;;;;;;4128982;28;20042;-69
2023/11/06 08:02:50;;;;;;;16.00;2.90;;;10.90;99.90;;;;;;4129655;28;20042;-69
2023/11/06 08:04:51;;;;;;;12.80;2.63;;;11.00;99.90;;;;;;4127994;28;20065;-69
2023/11/06 08:06:51;;;;;;;9.68;2.40;;;11.00;99.90;;;;;;4126686;28;20042;-69
2023/11/06 08:08:53;;;;;;;11.43;2.47;;;11.00;99.90;;;;;;4128584;28;20129;-69
2023/11/06 08:10:53;;;;;;;8.95;2.33;;;11.00;99.90;;;;;;4128640;28;20050;-69
2023/11/06 08:12:54;;;;;;;10.27;2.38;;;11.10;99.90;;;;;;4129649;28;20122;-69
2023/11/06 08:14:55;;;;;;;9.40;2.00;;;11.10;99.90;;;;;;4134443;28;20088;-69
2023/11/06 08:16:56;;;;;;;11.98;2.35;;;11.10;99.90;;;;;;4130849;28;20045;-69
2023/11/06 08:18:56;;;;;;;12.80;2.85;;;11.10;99.90;;;;;;4129439;28;20034;-69
2023/11/06 08:20:59;;;;;;;6.85;1.77;;;11.10;99.90;;;;;;4132924;28;20034;-69
2023/11/06 08:23:00;;;;;;;8.50;1.92;;;11.10;99.90;;;;;;4146009;28;20042;-69
2023/11/06 08:25:00;;;;;;;9.32;2.67;;;11.20;99.90;;;;;;4131375;28;20391;-69
2023/11/06 08:27:01;;;;;;;6.50;2.08;;;11.20;99.90;;;;;;4127278;28;20072;-69
2023/11/06 08:29:03;;;;;;;10.57;1.65;;;11.20;99.90;;;;;;4130378;28;20471;-68
2023/11/06 08:31:04;;;;;;;12.88;2.63;;;11.30;99.90;;;;;;4133983;28;20050;-69
2023/11/06 08:33:04;;;;;;;8.20;2.10;;;11.30;99.90;;;;;;4129656;28;20046;-69
2023/11/06 08:35:05;;;;;;;9.75;2.08;;;11.40;99.90;;;;;;4138892;28;20046;-69
2023/11/06 08:37:06;;;;;;;9.95;2.13;;;11.40;99.90;;;;;;4145149;28;20533;-69
2023/11/06 08:39:06;;;;;;;11.32;2.35;;;11.40;99.90;;;;;;4145180;28;20041;-69
2023/11/06 08:41:09;;;;;;;6.18;1.73;;;11.50;99.90;;;;;;4128328;28;20089;-68
2023/11/06 08:43:10;;;;;;;10.95;2.50;;;11.50;99.90;;;;;;4133393;28;20026;-69
2023/11/06 08:45:11;;;;;;;12.65;2.10;;;11.50;99.90;;;;;;4112076;28;20097;-69
2023/11/06 08:47:12;;;;;;;6.88;1.95;;;11.40;99.90;;;;;;4129188;28;20046;-69
2023/11/06 08:49:14;;;;;;;9.70;2.10;;;11.40;99.90;;;;;;4111657;28;20558;-68
2023/11/06 08:51:14;;;;;;;9.15;1.90;;;11.40;99.90;;;;;;4144603;28;20060;-68
2023/11/06 08:53:15;;;;;;;6.55;2.15;;;11.40;99.90;;;;;;4145788;28;20456;-68
2023/11/06 08:55:16;;;;;;;10.52;1.83;;;11.50;99.90;;;;;;4132719;28;20046;-71
2023/11/06 08:57:16;;;;;;;13.60;1.85;;;11.50;99.90;;;;;;4129484;28;20053;-69
2023/11/06 08:59:17;;;;;;;7.75;2.28;;;11.60;99.90;;;;;;4117117;28;20341;-69
2023/11/06 09:01:17;;;;;;;9.77;2.13;;;11.60;99.90;;;;;;4130149;28;20045;-69
2023/11/06 09:03:18;;;;;;;10.63;2.00;;;11.60;99.90;;;;;;4133063;28;20107;-69
2023/11/06 09:05:19;;;;;;;7.85;1.98;;;11.60;99.90;;;;;;4131906;28;20506;-68
2023/11/06 09:07:19;;;;;;;5.65;1.60;;;11.60;99.90;;;;;;4131451;28;20050;-70
2023/11/06 09:09:20;;;;;;;8.65;2.08;;;11.60;99.90;;;;;;4132467;28;20057;-70
2023/11/06 09:11:21;;;;;;;12.15;2.30;;;11.70;99.90;;;;;;4132793;28;20073;-70
2023/11/06 09:13:21;;;;;;;9.30;2.10;;;11.70;99.90;;;;;;4134454;28;20034;-71
2023/11/06 09:15:22;;;;;;;11.57;1.98;;;11.80;99.90;;;;;;4115942;28;20051;-71
2023/11/06 09:17:23;;;;;;;9.60;2.00;;;11.70;99.90;;;;;;4128853;28;20030;-71
2023/11/06 09:19:24;;;;;;;10.75;2.95;;;11.80;99.90;;;;;;4129121;28;20043;-70
2023/11/06 09:21:24;;;;;;;8.05;1.83;;;11.80;99.90;;;;;;4130628;28;20467;-70
2023/11/06 09:23:25;;;;;;;6.97;1.90;;;11.80;99.90;;;;;;4128072;28;20037;-70
2023/11/06 09:25:26;;;;;;;8.07;2.10;;;11.80;99.90;;;;;;4128492;28;20403;-71
2023/11/06 09:27:27;;;;;;;8.88;1.92;;;11.90;99.90;;;;;;4128625;28;20042;-72
2023/11/06 09:29:27;;;;;;;6.70;1.70;;;12.10;99.90;;;;;;4108160;28;20034;-71
2023/11/06 09:31:30;;;;;;;14.05;2.50;;;12.10;99.90;;;;;;4152416;28;20113;-71
2023/11/06 09:33:31;;;;;;;6.15;1.92;;;12.20;99.90;;;;;;4143196;28;20471;-71
2023/11/06 09:35:31;;;;;;;7.40;1.73;;;12.30;99.90;;;;;;4150988;28;20041;-71
2023/11/06 09:37:32;;;;;;;10.88;2.13;;;12.40;99.90;;;;;;4151594;28;20069;-71
2023/11/06 09:39:34;;;;;;;10.68;1.73;;;12.60;99.90;;;;;;4149950;28;20069;-71
2023/11/06 09:41:34;;;;;;;6.75;1.63;;;12.70;99.90;;;;;;4145959;28;20080;-71
2023/11/06 09:43:35;;;;;;;9.88;2.58;;;12.70;99.90;;;;;;4141263;28;20034;-71
2023/11/06 09:45:36;;;;;;;7.93;2.20;;;12.80;99.90;;;;;;4140984;28;20077;-71
2023/11/06 09:47:44;;;;;;;6.15;1.85;;;12.90;99.90;;;;;;4142001;28;20113;-70
2023/11/06 09:50:01;;;;;;;14.60;2.50;;;13.00;99.90;;;;;;4141045;28;20070;-71
2023/11/06 09:52:03;;;;;;;9.75;2.08;;;13.00;99.90;;;;;;4140627;28;20116;-71
2023/11/06 09:54:04;;;;;;;11.00;2.17;;;13.10;99.90;;;;;;4140670;28;20092;-71
2023/11/06 09:56:07;;;;;;;6.28;1.45;;;13.10;99.90;;;;;;4140336;28;20054;-71
2023/11/06 09:58:10;;;;;;;7.45;1.92;;;13.20;99.90;;;;;;4141590;28;20042;-71
2023/11/06 10:00:16;;;;;;;8.23;1.58;;;13.30;99.90;;;;;;4141440;28;20053;-71
2023/11/06 10:02:21;;;;;;;10.10;1.73;;;13.30;99.90;;;;;;4139601;28;20087;-71
2023/11/06 10:04:22;;;;;;;5.53;1.70;;;13.30;99.90;;;;;;4140676;28;20515;-71
2023/11/06 10:06:23;;;;;;;6.95;2.30;;;13.30;99.90;;;;;;4130425;28;20050;-71
2023/11/06 10:08:29;;;;;;;7.38;1.83;;;13.30;99.90;;;;;;4133592;28;20042;-71
2023/11/06 10:10:30;;;;;;;10.30;2.45;;;13.30;99.90;;;;;;4141186;28;20057;-71
2023/11/06 10:12:31;;;;;;;8.45;1.60;;;13.40;99.90;;;;;;4141042;28;20038;-71
2023/11/06 10:14:38;;;;;;;10.27;2.65;;;13.40;99.90;;;;;;4139713;28;20050;-72
2023/11/06 10:16:38;;;;;;;11.00;2.17;;;13.40;99.90;;;;;;4137670;28;20057;-69
2023/11/06 10:18:39;;;;;;;6.55;1.70;;;13.50;99.90;;;;;;4141891;28;20029;-69
2023/11/06 10:20:41;;;;;;;6.53;2.30;;;13.50;99.90;;;;;;4140998;28;20038;-69
2023/11/06 10:22:55;;;;;;;8.93;1.90;;;13.50;99.90;;;;;;4140309;28;22512;-69
2023/11/06 10:24:56;;;;;;;6.03;1.75;;;13.50;99.90;;;;;;4140633;28;20049;-70
2023/11/06 10:26:57;;;;;;;10.25;2.08;;;13.50;99.90;;;;;;4154530;28;20042;-69
2023/11/06 10:29:09;;;;;;;10.27;2.58;;;13.40;99.90;;;;;;4149405;28;20107;-69